sensor_id;sensor_type;location;lat;lon;timestamp;temperature;humidity
12438;DHT22;6283;51.330;12.374;2023-02-22T00:00:36;10.70;99.90
12438;DHT22;6283;51.330;12.374;2023-02-22T00:03:10;10.50;99.90
12438;DHT22;6283;51.330;12.374;2023-02-22T00:05:37;10.60;99.90
12438;DHT22;6283;51.330;12.374;2023-02-22T00:08:06;10.20;99.90
12438;DHT22;6283;51.330;12.374;2023-02-22T00:10:36;10.20;99.90
12438;DHT22;6283;51.330;12.374;2023-02-22T00:13:07;10.30;99.90
12438;DHT22;6283;51.330;12.374;2023-02-22T00:15:33;10.30;99.90
12438;DHT22;6283;51.330;12.374;2023-02-22T00:18:00;10.50;99.90
12438;DHT22;6283;51.330;12.374;2023-02-22T00:20:26;10.10;99.90
12438;DHT22;6283;51.330;12.374;2023-02-22T00:22:52;10.30;99.90
12438;DHT22;6283;51.330;12.374;2023-02-22T00:25:23;10.20;99.90
12438;DHT22;6283;51.330;12.374;2023-02-22T00:27:49;10.00;99.90
12438;DHT22;6283;51.330;12.374;2023-02-22T00:30:24;10.00;99.90
12438;DHT22;6283;51.330;12.374;2023-02-22T00:32:51;10.10;99.90
12438;DHT22;6283;51.330;12.374;2023-02-22T00:35:20;10.30;99.90
12438;DHT22;6283;51.330;12.374;2023-02-22T00:37:47;10.20;99.90
12438;DHT22;6283;51.330;12.374;2023-02-22T00:40:16;10.00;99.90
12438;DHT22;6283;51.330;12.374;2023-02-22T00:42:43;10.40;99.90
12438;DHT22;6283;51.330;12.374;2023-02-22T00:45:10;10.30;99.90
12438;DHT22;6283;51.330;12.374;2023-02-22T00:47:35;10.00;99.90
12438;DHT22;6283;51.330;12.374;2023-02-22T00:50:01;10.10;99.90
12438;DHT22;6283;51.330;12.374;2023-02-22T00:52:27;10.10;99.90
12438;DHT22;6283;51.330;12.374;2023-02-22T00:54:54;9.90;99.90
12438;DHT22;6283;51.330;12.374;2023-02-22T00:57:20;10.10;1.00
12438;DHT22;6283;51.330;12.374;2023-02-22T00:59:46;10.10;1.00
12438;DHT22;6283;51.330;12.374;2023-02-22T01:02:12;10.10;1.00
12438;DHT22;6283;51.330;12.374;2023-02-22T01:04:38;10.10;1.00
12438;DHT22;6283;51.330;12.374;2023-02-22T01:07:03;10.20;1.00
12438;DHT22;6283;51.330;12.374;2023-02-22T01:09:29;10.00;1.00
12438;DHT22;6283;51.330;12.374;2023-02-22T01:11:56;10.10;1.00
12438;DHT22;6283;51.330;12.374;2023-02-22T01:14:23;9.80;1.00
12438;DHT22;6283;51.330;12.374;2023-02-22T01:16:51;9.80;1.00
12438;DHT22;6283;51.330;12.374;2023-02-22T01:19:19;9.80;1.00
12438;DHT22;6283;51.330;12.374;2023-02-22T01:21:44;9.70;1.00
12438;DHT22;6283;51.330;12.374;2023-02-22T01:24:12;9.90;1.00
12438;DHT22;6283;51.330;12.374;2023-02-22T01:26:49;9.70;1.00
12438;DHT22;6283;51.330;12.374;2023-02-22T01:29:16;9.80;1.00
12438;DHT22;6283;51.330;12.374;2023-02-22T01:31:42;9.80;1.00
12438;DHT22;6283;51.330;12.374;2023-02-22T01:34:16;9.80;1.00
12438;DHT22;6283;51.330;12.374;2023-02-22T01:36:41;9.80;1.00
12438;DHT22;6283;51.330;12.374;2023-02-22T01:39:07;9.60;1.00
12438;DHT22;6283;51.330;12.374;2023-02-22T01:41:35;9.60;1.00
12438;DHT22;6283;51.330;12.374;2023-02-22T01:46:45;9.60;1.00
12438;DHT22;6283;51.330;12.374;2023-02-22T01:49:11;9.60;1.00
12438;DHT22;6283;51.330;12.374;2023-02-22T01:51:42;9.70;1.00
12438;DHT22;6283;51.330;12.374;2023-02-22T01:57:25;9.50;1.00
12438;DHT22;6283;51.330;12.374;2023-02-22T01:59:59;9.40;1.00
12438;DHT22;6283;51.330;12.374;2023-02-22T02:02:26;9.40;1.00
12438;DHT22;6283;51.330;12.374;2023-02-22T02:04:54;9.20;1.00
12438;DHT22;6283;51.330;12.374;2023-02-22T02:07:21;9.10;1.00
12438;DHT22;6283;51.330;12.374;2023-02-22T02:09:58;9.30;1.00
12438;DHT22;6283;51.330;12.374;2023-02-22T02:12:25;9.30;1.00
12438;DHT22;6283;51.330;12.374;2023-02-22T02:14:51;9.20;1.00
12438;DHT22;6283;51.330;12.374;2023-02-22T02:17:19;9.20;1.00
12438;DHT22;6283;51.330;12.374;2023-02-22T02:20:00;9.10;1.00
12438;DHT22;6283;51.330;12.374;2023-02-22T02:34:01;8.90;1.00
12438;DHT22;6283;51.330;12.374;2023-02-22T02:36:46;9.00;1.00
12438;DHT22;6283;51.330;12.374;2023-02-22T02:39:19;8.80;1.00
12438;DHT22;6283;51.330;12.374;2023-02-22T02:41:50;8.90;1.00
12438;DHT22;6283;51.330;12.374;2023-02-22T02:49:25;8.90;1.00
12438;DHT22;6283;51.330;12.374;2023-02-22T02:51:55;8.90;1.00
12438;DHT22;6283;51.330;12.374;2023-02-22T02:54:23;8.90;1.00
12438;DHT22;6283;51.330;12.374;2023-02-22T02:56:49;9.10;1.00
12438;DHT22;6283;51.330;12.374;2023-02-22T02:59:34;8.90;1.00
12438;DHT22;6283;51.330;12.374;2023-02-22T03:10:58;9.00;1.00
12438;DHT22;6283;51.330;12.374;2023-02-22T03:13:50;9.20;1.00
12438;DHT22;6283;51.330;12.374;2023-02-22T03:16:31;9.20;1.00
12438;DHT22;6283;51.330;12.374;2023-02-22T03:19:10;9.20;1.00
12438;DHT22;6283;51.330;12.374;2023-02-22T03:29:47;9.60;1.00
12438;DHT22;6283;51.330;12.374;2023-02-22T03:32:22;9.50;1.00
12438;DHT22;6283;51.330;12.374;2023-02-22T03:35:04;9.50;1.00
12438;DHT22;6283;51.330;12.374;2023-02-22T03:37:34;9.70;1.00
12438;DHT22;6283;51.330;12.374;2023-02-22T03:40:03;9.70;1.00
12438;DHT22;6283;51.330;12.374;2023-02-22T03:42:42;9.50;1.00
12438;DHT22;6283;51.330;12.374;2023-02-22T03:45:10;9.70;1.00
12438;DHT22;6283;51.330;12.374;2023-02-22T03:47:40;9.60;1.00
12438;DHT22;6283;51.330;12.374;2023-02-22T03:50:08;9.60;1.00
12438;DHT22;6283;51.330;12.374;2023-02-22T03:52:35;9.80;1.00
12438;DHT22;6283;51.330;12.374;2023-02-22T03:55:02;9.70;1.00
12438;DHT22;6283;51.330;12.374;2023-02-22T03:57:33;9.90;1.00
12438;DHT22;6283;51.330;12.374;2023-02-22T04:00:01;9.90;1.00
12438;DHT22;6283;51.330;12.374;2023-02-22T04:02:28;9.90;1.00
12438;DHT22;6283;51.330;12.374;2023-02-22T04:04:54;9.70;1.00
12438;DHT22;6283;51.330;12.374;2023-02-22T04:07:20;9.80;1.00
12438;DHT22;6283;51.330;12.374;2023-02-22T04:09:46;9.90;1.00
12438;DHT22;6283;51.330;12.374;2023-02-22T04:12:12;9.80;1.00
12438;DHT22;6283;51.330;12.374;2023-02-22T04:14:38;9.70;1.00
12438;DHT22;6283;51.330;12.374;2023-02-22T04:17:04;9.80;1.00
12438;DHT22;6283;51.330;12.374;2023-02-22T04:19:29;9.80;1.00
12438;DHT22;6283;51.330;12.374;2023-02-22T04:21:55;9.70;1.00
12438;DHT22;6283;51.330;12.374;2023-02-22T04:24:21;9.80;1.00
12438;DHT22;6283;51.330;12.374;2023-02-22T04:26:46;9.70;1.00
12438;DHT22;6283;51.330;12.374;2023-02-22T04:29:12;9.70;1.00
12438;DHT22;6283;51.330;12.374;2023-02-22T04:31:38;9.60;1.00
12438;DHT22;6283;51.330;12.374;2023-02-22T04:34:03;9.40;1.00
12438;DHT22;6283;51.330;12.374;2023-02-22T04:36:30;9.50;1.00
12438;DHT22;6283;51.330;12.374;2023-02-22T04:38:59;9.80;1.00
12438;DHT22;6283;51.330;12.374;2023-02-22T04:41:24;9.60;1.00
12438;DHT22;6283;51.330;12.374;2023-02-22T04:43:50;9.80;1.00
12438;DHT22;6283;51.330;12.374;2023-02-22T04:46:16;9.50;1.00
12438;DHT22;6283;51.330;12.374;2023-02-22T04:48:42;9.70;1.00
12438;DHT22;6283;51.330;12.374;2023-02-22T04:51:08;9.70;1.00
12438;DHT22;6283;51.330;12.374;2023-02-22T04:53:34;9.50;1.00
12438;DHT22;6283;51.330;12.374;2023-02-22T04:56:00;9.70;1.00
12438;DHT22;6283;51.330;12.374;2023-02-22T04:58:26;9.60;1.00
12438;DHT22;6283;51.330;12.374;2023-02-22T05:00:52;9.80;1.00
12438;DHT22;6283;51.330;12.374;2023-02-22T05:03:17;9.50;1.00
12438;DHT22;6283;51.330;12.374;2023-02-22T05:05:43;9.80;1.00
12438;DHT22;6283;51.330;12.374;2023-02-22T05:08:09;9.90;1.00
12438;DHT22;6283;51.330;12.374;2023-02-22T05:10:34;9.50;1.00
12438;DHT22;6283;51.330;12.374;2023-02-22T05:13:00;9.70;1.00
12438;DHT22;6283;51.330;12.374;2023-02-22T05:15:26;9.70;1.00
12438;DHT22;6283;51.330;12.374;2023-02-22T05:17:52;9.70;1.00
12438;DHT22;6283;51.330;12.374;2023-02-22T05:20:33;9.70;1.00
12438;DHT22;6283;51.330;12.374;2023-02-22T05:23:00;9.80;1.00
12438;DHT22;6283;51.330;12.374;2023-02-22T05:25:26;9.70;1.00
12438;DHT22;6283;51.330;12.374;2023-02-22T05:27:55;9.70;1.00
12438;DHT22;6283;51.330;12.374;2023-02-22T05:30:24;10.00;1.00
12438;DHT22;6283;51.330;12.374;2023-02-22T05:32:51;10.00;1.00
12438;DHT22;6283;51.330;12.374;2023-02-22T05:35:17;10.10;1.00
12438;DHT22;6283;51.330;12.374;2023-02-22T05:37:43;10.00;1.00
12438;DHT22;6283;51.330;12.374;2023-02-22T05:40:10;10.20;1.00
12438;DHT22;6283;51.330;12.374;2023-02-22T05:42:35;10.10;1.00
12438;DHT22;6283;51.330;12.374;2023-02-22T05:45:01;10.10;1.00
12438;DHT22;6283;51.330;12.374;2023-02-22T05:47:28;10.20;1.00
12438;DHT22;6283;51.330;12.374;2023-02-22T05:49:53;10.20;1.00
12438;DHT22;6283;51.330;12.374;2023-02-22T05:52:19;10.10;1.00
12438;DHT22;6283;51.330;12.374;2023-02-22T05:54:45;10.00;1.00
12438;DHT22;6283;51.330;12.374;2023-02-22T05:57:10;10.30;1.00
12438;DHT22;6283;51.330;12.374;2023-02-22T05:59:36;10.00;1.00
12438;DHT22;6283;51.330;12.374;2023-02-22T06:02:01;10.10;1.00
12438;DHT22;6283;51.330;12.374;2023-02-22T06:04:27;10.10;1.00
12438;DHT22;6283;51.330;12.374;2023-02-22T06:06:53;10.20;1.00
12438;DHT22;6283;51.330;12.374;2023-02-22T06:09:18;10.10;1.00
12438;DHT22;6283;51.330;12.374;2023-02-22T06:11:44;10.20;1.00
12438;DHT22;6283;51.330;12.374;2023-02-22T06:14:09;10.10;1.00
12438;DHT22;6283;51.330;12.374;2023-02-22T06:16:35;10.10;1.00
12438;DHT22;6283;51.330;12.374;2023-02-22T06:19:01;10.00;1.00
12438;DHT22;6283;51.330;12.374;2023-02-22T06:21:27;10.10;1.00
12438;DHT22;6283;51.330;12.374;2023-02-22T06:23:52;9.80;1.00
12438;DHT22;6283;51.330;12.374;2023-02-22T06:26:18;10.00;1.00
12438;DHT22;6283;51.330;12.374;2023-02-22T06:28:45;10.00;1.00
12438;DHT22;6283;51.330;12.374;2023-02-22T06:31:11;9.90;1.00
12438;DHT22;6283;51.330;12.374;2023-02-22T06:33:36;10.00;1.00
12438;DHT22;6283;51.330;12.374;2023-02-22T06:36:02;10.00;1.00
12438;DHT22;6283;51.330;12.374;2023-02-22T06:38:30;10.00;1.00
12438;DHT22;6283;51.330;12.374;2023-02-22T06:40:56;10.00;1.00
12438;DHT22;6283;51.330;12.374;2023-02-22T06:43:23;10.00;1.00
12438;DHT22;6283;51.330;12.374;2023-02-22T06:45:50;10.00;1.00
12438;DHT22;6283;51.330;12.374;2023-02-22T06:48:15;10.10;1.00
12438;DHT22;6283;51.330;12.374;2023-02-22T06:50:41;9.90;1.00
12438;DHT22;6283;51.330;12.374;2023-02-22T06:53:07;10.20;1.00
12438;DHT22;6283;51.330;12.374;2023-02-22T06:55:34;10.20;1.00
12438;DHT22;6283;51.330;12.374;2023-02-22T06:58:01;10.50;1.00
12438;DHT22;6283;51.330;12.374;2023-02-22T07:00:29;10.30;1.00
12438;DHT22;6283;51.330;12.374;2023-02-22T07:02:56;10.40;1.00
12438;DHT22;6283;51.330;12.374;2023-02-22T07:05:23;10.40;1.00
12438;DHT22;6283;51.330;12.374;2023-02-22T07:07:50;10.30;1.00
12438;DHT22;6283;51.330;12.374;2023-02-22T07:10:19;10.20;1.00
12438;DHT22;6283;51.330;12.374;2023-02-22T07:12:45;10.30;1.00
12438;DHT22;6283;51.330;12.374;2023-02-22T07:15:10;10.20;1.00
12438;DHT22;6283;51.330;12.374;2023-02-22T07:17:36;10.50;1.00
12438;DHT22;6283;51.330;12.374;2023-02-22T07:20:02;10.40;1.00
12438;DHT22;6283;51.330;12.374;2023-02-22T07:22:28;10.20;1.00
12438;DHT22;6283;51.330;12.374;2023-02-22T07:24:53;10.20;1.00
12438;DHT22;6283;51.330;12.374;2023-02-22T07:27:19;10.10;1.00
12438;DHT22;6283;51.330;12.374;2023-02-22T07:29:45;10.20;1.00
12438;DHT22;6283;51.330;12.374;2023-02-22T07:32:11;10.30;1.00
12438;DHT22;6283;51.330;12.374;2023-02-22T07:34:36;10.40;1.00
12438;DHT22;6283;51.330;12.374;2023-02-22T07:37:02;10.40;1.00
12438;DHT22;6283;51.330;12.374;2023-02-22T07:39:28;10.40;1.00
12438;DHT22;6283;51.330;12.374;2023-02-22T07:41:53;10.60;1.00
12438;DHT22;6283;51.330;12.374;2023-02-22T07:44:19;10.30;1.00
12438;DHT22;6283;51.330;12.374;2023-02-22T07:46:48;10.30;1.00
12438;DHT22;6283;51.330;12.374;2023-02-22T07:49:14;10.40;1.00
12438;DHT22;6283;51.330;12.374;2023-02-22T07:51:40;10.30;1.00
12438;DHT22;6283;51.330;12.374;2023-02-22T07:54:06;10.50;1.00
12438;DHT22;6283;51.330;12.374;2023-02-22T07:56:31;10.70;1.00
12438;DHT22;6283;51.330;12.374;2023-02-22T07:58:57;10.50;1.00
12438;DHT22;6283;51.330;12.374;2023-02-22T08:01:22;10.50;1.00
12438;DHT22;6283;51.330;12.374;2023-02-22T08:03:49;10.60;1.00
12438;DHT22;6283;51.330;12.374;2023-02-22T08:06:15;10.50;1.00
12438;DHT22;6283;51.330;12.374;2023-02-22T08:08:41;10.60;1.00
12438;DHT22;6283;51.330;12.374;2023-02-22T08:11:07;10.60;1.00
12438;DHT22;6283;51.330;12.374;2023-02-22T08:13:33;10.60;1.00
12438;DHT22;6283;51.330;12.374;2023-02-22T08:15:59;10.90;1.00
12438;DHT22;6283;51.330;12.374;2023-02-22T08:18:25;10.50;1.00
12438;DHT22;6283;51.330;12.374;2023-02-22T08:20:52;10.70;1.00
12438;DHT22;6283;51.330;12.374;2023-02-22T08:23:19;10.80;1.00
12438;DHT22;6283;51.330;12.374;2023-02-22T08:25:45;10.80;1.00
12438;DHT22;6283;51.330;12.374;2023-02-22T08:28:14;10.80;1.00
12438;DHT22;6283;51.330;12.374;2023-02-22T08:30:41;10.90;1.00
12438;DHT22;6283;51.330;12.374;2023-02-22T08:33:12;11.00;1.00
12438;DHT22;6283;51.330;12.374;2023-02-22T08:35:40;11.10;1.00
12438;DHT22;6283;51.330;12.374;2023-02-22T08:38:06;11.10;1.00
12438;DHT22;6283;51.330;12.374;2023-02-22T08:40:34;11.40;1.00
12438;DHT22;6283;51.330;12.374;2023-02-22T08:43:01;11.00;1.00
12438;DHT22;6283;51.330;12.374;2023-02-22T08:45:27;11.30;1.00
12438;DHT22;6283;51.330;12.374;2023-02-22T08:47:52;11.10;1.00
12438;DHT22;6283;51.330;12.374;2023-02-22T08:50:21;11.30;1.00
12438;DHT22;6283;51.330;12.374;2023-02-22T08:52:52;11.20;1.00
12438;DHT22;6283;51.330;12.374;2023-02-22T08:55:20;11.50;1.00
12438;DHT22;6283;51.330;12.374;2023-02-22T08:57:46;11.50;1.00
12438;DHT22;6283;51.330;12.374;2023-02-22T09:00:12;11.40;1.00
12438;DHT22;6283;51.330;12.374;2023-02-22T09:02:38;11.60;1.00
12438;DHT22;6283;51.330;12.374;2023-02-22T09:05:03;11.50;1.00
12438;DHT22;6283;51.330;12.374;2023-02-22T09:07:30;11.80;1.00
12438;DHT22;6283;51.330;12.374;2023-02-22T09:09:56;11.70;1.00
12438;DHT22;6283;51.330;12.374;2023-02-22T09:12:21;11.80;1.00
12438;DHT22;6283;51.330;12.374;2023-02-22T09:14:47;11.80;1.00
12438;DHT22;6283;51.330;12.374;2023-02-22T09:17:12;11.60;1.00
12438;DHT22;6283;51.330;12.374;2023-02-22T09:19:38;11.60;1.00
12438;DHT22;6283;51.330;12.374;2023-02-22T09:22:04;11.70;1.00
12438;DHT22;6283;51.330;12.374;2023-02-22T09:24:29;11.70;1.00
12438;DHT22;6283;51.330;12.374;2023-02-22T09:26:55;11.90;1.00
12438;DHT22;6283;51.330;12.374;2023-02-22T09:29:22;11.80;1.00
12438;DHT22;6283;51.330;12.374;2023-02-22T09:31:50;11.70;1.00
12438;DHT22;6283;51.330;12.374;2023-02-22T09:34:18;12.00;1.00
12438;DHT22;6283;51.330;12.374;2023-02-22T09:36:45;12.00;1.00
12438;DHT22;6283;51.330;12.374;2023-02-22T09:39:11;11.80;1.00
12438;DHT22;6283;51.330;12.374;2023-02-22T09:41:46;11.90;1.00
12438;DHT22;6283;51.330;12.374;2023-02-22T09:47:01;11.90;1.00
12438;DHT22;6283;51.330;12.374;2023-02-22T09:49:37;12.20;1.00
12438;DHT22;6283;51.330;12.374;2023-02-22T09:54:38;12.30;1.00
12438;DHT22;6283;51.330;12.374;2023-02-22T09:57:08;12.30;1.00
12438;DHT22;6283;51.330;12.374;2023-02-22T09:59:59;12.30;1.00
12438;DHT22;6283;51.330;12.374;2023-02-22T10:02:29;12.30;1.00
12438;DHT22;6283;51.330;12.374;2023-02-22T10:05:21;12.30;1.00
12438;DHT22;6283;51.330;12.374;2023-02-22T10:07:58;12.10;1.00
12438;DHT22;6283;51.330;12.374;2023-02-22T10:10:34;12.40;99.90
12438;DHT22;6283;51.330;12.374;2023-02-22T10:13:10;12.40;99.90
12438;DHT22;6283;51.330;12.374;2023-02-22T10:22:10;12.50;99.90
12438;DHT22;6283;51.330;12.374;2023-02-22T10:24:51;12.70;99.90
12438;DHT22;6283;51.330;12.374;2023-02-22T10:27:20;12.90;99.90
12438;DHT22;6283;51.330;12.374;2023-02-22T10:29:56;12.90;99.90
12438;DHT22;6283;51.330;12.374;2023-02-22T10:32:28;12.90;99.90
12438;DHT22;6283;51.330;12.374;2023-02-22T10:34:58;13.00;99.90
12438;DHT22;6283;51.330;12.374;2023-02-22T10:37:32;12.70;99.90
12438;DHT22;6283;51.330;12.374;2023-02-22T10:40:10;12.80;99.90
12438;DHT22;6283;51.330;12.374;2023-02-22T10:42:36;13.10;99.90
12438;DHT22;6283;51.330;12.374;2023-02-22T10:45:02;13.20;99.90
12438;DHT22;6283;51.330;12.374;2023-02-22T10:47:28;13.10;99.90
12438;DHT22;6283;51.330;12.374;2023-02-22T10:49:58;13.10;99.90
12438;DHT22;6283;51.330;12.374;2023-02-22T10:52:33;13.20;99.90
12438;DHT22;6283;51.330;12.374;2023-02-22T10:55:00;13.20;99.90
12438;DHT22;6283;51.330;12.374;2023-02-22T10:57:31;13.50;99.90
12438;DHT22;6283;51.330;12.374;2023-02-22T11:03:02;13.90;99.90
12438;DHT22;6283;51.330;12.374;2023-02-22T11:05:37;13.70;99.90
12438;DHT22;6283;51.330;12.374;2023-02-22T11:08:28;13.70;99.90
12438;DHT22;6283;51.330;12.374;2023-02-22T11:11:02;13.90;99.90
12438;DHT22;6283;51.330;12.374;2023-02-22T11:13:55;13.90;99.90
12438;DHT22;6283;51.330;12.374;2023-02-22T11:16:34;14.00;99.90
12438;DHT22;6283;51.330;12.374;2023-02-22T11:21:32;14.20;99.90
12438;DHT22;6283;51.330;12.374;2023-02-22T11:24:07;14.40;99.90
12438;DHT22;6283;51.330;12.374;2023-02-22T11:26:47;14.40;99.90
12438;DHT22;6283;51.330;12.374;2023-02-22T11:29:21;14.40;99.90
12438;DHT22;6283;51.330;12.374;2023-02-22T11:31:49;14.20;99.90
12438;DHT22;6283;51.330;12.374;2023-02-22T11:34:35;14.30;99.90
12438;DHT22;6283;51.330;12.374;2023-02-22T11:42:49;14.30;99.90
12438;DHT22;6283;51.330;12.374;2023-02-22T11:45:30;14.60;99.90
12438;DHT22;6283;51.330;12.374;2023-02-22T11:48:00;14.40;99.90
12438;DHT22;6283;51.330;12.374;2023-02-22T11:50:37;14.40;99.90
12438;DHT22;6283;51.330;12.374;2023-02-22T11:56:21;14.60;99.90
12438;DHT22;6283;51.330;12.374;2023-02-22T11:59:11;14.60;99.90
12438;DHT22;6283;51.330;12.374;2023-02-22T12:01:48;14.80;99.90
12438;DHT22;6283;51.330;12.374;2023-02-22T12:10:19;14.80;99.90
12438;DHT22;6283;51.330;12.374;2023-02-22T12:13:12;14.90;99.90
12438;DHT22;6283;51.330;12.374;2023-02-22T12:21:15;15.10;99.90
12438;DHT22;6283;51.330;12.374;2023-02-22T12:24:06;15.20;99.90
12438;DHT22;6283;51.330;12.374;2023-02-22T12:26:39;15.30;99.90
12438;DHT22;6283;51.330;12.374;2023-02-22T12:32:33;15.50;99.90
12438;DHT22;6283;51.330;12.374;2023-02-22T12:35:18;15.50;99.90
12438;DHT22;6283;51.330;12.374;2023-02-22T12:43:40;15.60;99.90
12438;DHT22;6283;51.330;12.374;2023-02-22T12:49:19;15.80;99.90
12438;DHT22;6283;51.330;12.374;2023-02-22T12:51:54;16.00;99.90
12438;DHT22;6283;51.330;12.374;2023-02-22T12:57:02;16.30;99.90
12438;DHT22;6283;51.330;12.374;2023-02-22T12:59:51;16.60;99.90
12438;DHT22;6283;51.330;12.374;2023-02-22T13:04:55;16.70;99.90
12438;DHT22;6283;51.330;12.374;2023-02-22T13:07:39;16.60;99.90
12438;DHT22;6283;51.330;12.374;2023-02-22T13:10:52;16.50;99.90
12438;DHT22;6283;51.330;12.374;2023-02-22T13:13:56;16.50;99.90
12438;DHT22;6283;51.330;12.374;2023-02-22T13:29:59;16.60;99.90
12438;DHT22;6283;51.330;12.374;2023-02-22T13:32:36;16.60;99.90
12438;DHT22;6283;51.330;12.374;2023-02-22T13:38:07;16.60;99.90
12438;DHT22;6283;51.330;12.374;2023-02-22T13:46:13;16.60;99.90
12438;DHT22;6283;51.330;12.374;2023-02-22T13:49:14;16.60;99.90
12438;DHT22;6283;51.330;12.374;2023-02-22T13:51:52;16.70;99.90
12438;DHT22;6283;51.330;12.374;2023-02-22T13:54:35;16.70;99.90
12438;DHT22;6283;51.330;12.374;2023-02-22T13:57:03;16.80;99.90
12438;DHT22;6283;51.330;12.374;2023-02-22T13:59:41;16.80;99.90
12438;DHT22;6283;51.330;12.374;2023-02-22T14:02:31;16.70;99.90
12438;DHT22;6283;51.330;12.374;2023-02-22T14:04:57;16.60;99.90
12438;DHT22;6283;51.330;12.374;2023-02-22T14:09:50;16.30;99.90
12438;DHT22;6283;51.330;12.374;2023-02-22T14:18:12;16.10;99.90
12438;DHT22;6283;51.330;12.374;2023-02-22T14:20:33;16.00;99.90
12438;DHT22;6283;51.330;12.374;2023-02-22T14:23:25;16.00;99.90
12438;DHT22;6283;51.330;12.374;2023-02-22T14:25:52;16.00;99.90
12438;DHT22;6283;51.330;12.374;2023-02-22T14:28:47;16.00;99.90
12438;DHT22;6283;51.330;12.374;2023-02-22T14:31:16;16.00;99.90
12438;DHT22;6283;51.330;12.374;2023-02-22T14:36:32;15.90;99.90
12438;DHT22;6283;51.330;12.374;2023-02-22T14:39:11;15.90;99.90
12438;DHT22;6283;51.330;12.374;2023-02-22T14:41:41;15.90;99.90
12438;DHT22;6283;51.330;12.374;2023-02-22T14:44:07;15.90;99.90
12438;DHT22;6283;51.330;12.374;2023-02-22T14:46:39;15.80;99.90
12438;DHT22;6283;51.330;12.374;2023-02-22T14:49:09;15.90;99.90
12438;DHT22;6283;51.330;12.374;2023-02-22T14:51:57;15.90;99.90
12438;DHT22;6283;51.330;12.374;2023-02-22T14:54:35;15.90;99.90
12438;DHT22;6283;51.330;12.374;2023-02-22T14:57:11;15.80;99.90
12438;DHT22;6283;51.330;12.374;2023-02-22T15:00:01;15.90;99.90
12438;DHT22;6283;51.330;12.374;2023-02-22T15:02:39;15.80;99.90
12438;DHT22;6283;51.330;12.374;2023-02-22T15:05:06;15.80;99.90
12438;DHT22;6283;51.330;12.374;2023-02-22T15:07:31;15.80;99.90
12438;DHT22;6283;51.330;12.374;2023-02-22T15:12:53;15.70;99.90
12438;DHT22;6283;51.330;12.374;2023-02-22T15:15:21;15.60;99.90
12438;DHT22;6283;51.330;12.374;2023-02-22T15:17:56;15.50;99.90
12438;DHT22;6283;51.330;12.374;2023-02-22T15:20:24;15.50;99.90
12438;DHT22;6283;51.330;12.374;2023-02-22T15:22:50;15.30;99.90
12438;DHT22;6283;51.330;12.374;2023-02-22T15:25:24;15.20;99.90
12438;DHT22;6283;51.330;12.374;2023-02-22T15:27:52;15.10;99.90
12438;DHT22;6283;51.330;12.374;2023-02-22T15:30:25;15.00;99.90
12438;DHT22;6283;51.330;12.374;2023-02-22T15:32:52;14.90;99.90
12438;DHT22;6283;51.330;12.374;2023-02-22T15:38:04;14.70;99.90
12438;DHT22;6283;51.330;12.374;2023-02-22T15:40:31;14.60;99.90
12438;DHT22;6283;51.330;12.374;2023-02-22T15:43:05;14.60;99.90
12438;DHT22;6283;51.330;12.374;2023-02-22T15:45:33;14.50;99.90
12438;DHT22;6283;51.330;12.374;2023-02-22T15:48:02;14.40;99.90
12438;DHT22;6283;51.330;12.374;2023-02-22T15:50:30;14.30;99.90
12438;DHT22;6283;51.330;12.374;2023-02-22T15:53:23;14.30;99.90
12438;DHT22;6283;51.330;12.374;2023-02-22T15:55:48;14.30;99.90
12438;DHT22;6283;51.330;12.374;2023-02-22T15:58:21;14.10;99.90
12438;DHT22;6283;51.330;12.374;2023-02-22T16:00:56;13.90;99.90
12438;DHT22;6283;51.330;12.374;2023-02-22T16:03:24;13.90;99.90
12438;DHT22;6283;51.330;12.374;2023-02-22T16:05:57;13.80;99.90
12438;DHT22;6283;51.330;12.374;2023-02-22T16:08:45;13.80;99.90
12438;DHT22;6283;51.330;12.374;2023-02-22T16:13:59;13.70;99.90
12438;DHT22;6283;51.330;12.374;2023-02-22T16:16:31;13.50;99.90
12438;DHT22;6283;51.330;12.374;2023-02-22T16:21:56;13.50;99.90
12438;DHT22;6283;51.330;12.374;2023-02-22T16:24:31;13.40;99.90
12438;DHT22;6283;51.330;12.374;2023-02-22T16:27:17;13.30;99.90
12438;DHT22;6283;51.330;12.374;2023-02-22T16:29:59;13.30;99.90
12438;DHT22;6283;51.330;12.374;2023-02-22T16:32:24;13.00;99.90
12438;DHT22;6283;51.330;12.374;2023-02-22T16:34:50;12.90;99.90
12438;DHT22;6283;51.330;12.374;2023-02-22T16:37:20;12.80;99.90
12438;DHT22;6283;51.330;12.374;2023-02-22T16:39:47;12.70;99.90
12438;DHT22;6283;51.330;12.374;2023-02-22T16:42:16;12.70;99.90
12438;DHT22;6283;51.330;12.374;2023-02-22T16:44:49;12.70;99.90
12438;DHT22;6283;51.330;12.374;2023-02-22T16:47:15;12.60;99.90
12438;DHT22;6283;51.330;12.374;2023-02-22T16:49:41;12.40;99.90
12438;DHT22;6283;51.330;12.374;2023-02-22T16:52:06;12.60;99.90
12438;DHT22;6283;51.330;12.374;2023-02-22T16:54:35;12.50;99.90
12438;DHT22;6283;51.330;12.374;2023-02-22T16:57:04;12.30;99.90
12438;DHT22;6283;51.330;12.374;2023-02-22T16:59:39;12.10;99.90
12438;DHT22;6283;51.330;12.374;2023-02-22T17:02:05;12.20;99.90
12438;DHT22;6283;51.330;12.374;2023-02-22T17:04:34;12.20;99.90
12438;DHT22;6283;51.330;12.374;2023-02-22T17:06:59;11.90;99.90
12438;DHT22;6283;51.330;12.374;2023-02-22T17:09:27;11.80;99.90
12438;DHT22;6283;51.330;12.374;2023-02-22T17:11:53;12.00;99.90
12438;DHT22;6283;51.330;12.374;2023-02-22T17:14:22;11.80;99.90
12438;DHT22;6283;51.330;12.374;2023-02-22T17:16:52;11.90;99.90
12438;DHT22;6283;51.330;12.374;2023-02-22T17:19:20;11.90;99.90
12438;DHT22;6283;51.330;12.374;2023-02-22T17:21:47;11.80;99.90
12438;DHT22;6283;51.330;12.374;2023-02-22T17:24:14;11.90;99.90
12438;DHT22;6283;51.330;12.374;2023-02-22T17:26:41;11.70;99.90
12438;DHT22;6283;51.330;12.374;2023-02-22T17:29:07;11.80;99.90
12438;DHT22;6283;51.330;12.374;2023-02-22T17:31:33;11.80;99.90
12438;DHT22;6283;51.330;12.374;2023-02-22T17:34:01;11.70;99.90
12438;DHT22;6283;51.330;12.374;2023-02-22T17:36:28;11.90;99.90
12438;DHT22;6283;51.330;12.374;2023-02-22T17:38:54;11.50;99.90
12438;DHT22;6283;51.330;12.374;2023-02-22T17:41:20;11.60;99.90
12438;DHT22;6283;51.330;12.374;2023-02-22T17:43:45;11.70;99.90
12438;DHT22;6283;51.330;12.374;2023-02-22T17:46:11;11.60;99.90
12438;DHT22;6283;51.330;12.374;2023-02-22T17:48:37;11.40;99.90
12438;DHT22;6283;51.330;12.374;2023-02-22T17:51:09;11.50;99.90
12438;DHT22;6283;51.330;12.374;2023-02-22T17:53:36;11.70;99.90
12438;DHT22;6283;51.330;12.374;2023-02-22T17:56:10;11.60;99.90
12438;DHT22;6283;51.330;12.374;2023-02-22T17:58:38;11.40;99.90
12438;DHT22;6283;51.330;12.374;2023-02-22T18:01:04;11.10;99.90
12438;DHT22;6283;51.330;12.374;2023-02-22T18:03:30;11.40;99.90
12438;DHT22;6283;51.330;12.374;2023-02-22T18:05:58;11.20;99.90
12438;DHT22;6283;51.330;12.374;2023-02-22T18:08:28;11.40;99.90
12438;DHT22;6283;51.330;12.374;2023-02-22T18:10:54;11.30;99.90
12438;DHT22;6283;51.330;12.374;2023-02-22T18:13:25;11.40;99.90
12438;DHT22;6283;51.330;12.374;2023-02-22T18:15:51;11.10;99.90
12438;DHT22;6283;51.330;12.374;2023-02-22T18:18:17;11.10;99.90